createdAt,value
2023-04-21T00:01:56.448Z,8.50
2023-04-21T00:03:59.494Z,6.00
2023-04-21T00:06:01.065Z,3.75
2023-04-21T00:08:02.727Z,7.00
2023-04-21T00:10:05.014Z,7.50
2023-04-21T00:12:06.895Z,14.00
2023-04-21T00:14:08.525Z,6.50
2023-04-21T00:16:10.388Z,9.00
2023-04-21T00:18:12.031Z,7.50
2023-04-21T00:20:15.295Z,4.00
2023-04-21T00:22:16.807Z,6.00
2023-04-21T00:24:18.362Z,8.50
2023-04-21T00:26:20.091Z,6.75
2023-04-21T00:28:21.777Z,4.75
2023-04-21T00:30:23.356Z,5.75
2023-04-21T00:32:25.061Z,4.25
2023-04-21T00:34:26.669Z,8.25
2023-04-21T00:36:29.612Z,7.25
2023-04-21T00:38:31.199Z,3.75
2023-04-21T00:40:32.804Z,7.25
2023-04-21T00:42:34.405Z,8.75
2023-04-21T00:44:36.108Z,10.75
2023-04-21T00:46:37.659Z,7.50
2023-04-21T00:48:39.367Z,4.00
2023-04-21T00:50:41.432Z,5.75
2023-04-21T00:52:44.994Z,6.50
2023-04-21T00:54:46.666Z,6.00
2023-04-21T00:56:48.210Z,7.00
2023-04-21T00:58:50.012Z,8.00
2023-04-21T01:00:51.615Z,3.75
2023-04-21T01:02:53.602Z,4.00
2023-04-21T01:04:58.413Z,8.00
2023-04-21T01:06:59.981Z,7.75
2023-04-21T01:09:03.245Z,7.50
2023-04-21T01:11:10.173Z,7.25
2023-04-21T01:13:11.692Z,3.50
2023-04-21T01:15:14.307Z,4.00
2023-04-21T01:17:15.889Z,6.50
2023-04-21T01:19:17.715Z,5.25
2023-04-21T01:21:19.825Z,6.50
2023-04-21T01:23:22.733Z,7.00
2023-04-21T01:25:24.250Z,7.50
2023-04-21T01:27:25.834Z,5.25
2023-04-21T01:29:27.496Z,3.25
2023-04-21T01:31:29.088Z,6.50
2023-04-21T01:33:31.094Z,3.50
2023-04-21T01:35:32.748Z,7.00
2023-04-21T01:37:34.836Z,6.25
2023-04-21T01:39:39.164Z,6.00
2023-04-21T01:41:40.817Z,7.75
2023-04-21T01:43:42.518Z,6.00
2023-04-21T01:45:44.306Z,9.00
2023-04-21T01:47:45.995Z,4.75
2023-04-21T01:49:47.534Z,5.75
2023-04-21T01:51:49.159Z,3.50
2023-04-21T01:53:50.754Z,3.75
2023-04-21T01:55:53.710Z,3.50
2023-04-21T01:57:55.576Z,3.50
2023-04-21T01:59:57.148Z,3.00
2023-04-21T02:01:58.819Z,4.50
2023-04-21T02:04:00.650Z,2.00
2023-04-21T02:06:07.077Z,2.25
2023-04-21T02:08:08.596Z,5.00
2023-04-21T02:10:10.725Z,7.00
2023-04-21T02:12:13.892Z,3.00
2023-04-21T02:14:15.504Z,3.50
2023-04-21T02:16:17.290Z,3.00
2023-04-21T02:18:18.893Z,6.50
2023-04-21T02:20:20.859Z,4.00
2023-04-21T02:22:22.651Z,3.25
2023-04-21T02:24:24.371Z,5.00
2023-04-21T02:26:25.932Z,7.00
2023-04-21T02:28:28.964Z,6.50
2023-04-21T02:30:30.560Z,2.25
2023-04-21T02:32:32.220Z,5.75
2023-04-21T02:34:33.876Z,2.50
2023-04-21T02:36:35.422Z,0.25
2023-04-21T02:38:37.065Z,3.50
2023-04-21T02:40:38.720Z,3.00
2023-04-21T02:42:40.289Z,3.00
2023-04-21T02:44:43.436Z,3.00
2023-04-21T02:46:46.982Z,3.50
2023-04-21T02:48:48.631Z,3.00
2023-04-21T02:50:50.928Z,3.75
2023-04-21T02:52:52.596Z,6.00
2023-04-21T02:54:54.357Z,4.00
2023-04-21T02:56:56.013Z,3.00
2023-04-21T02:58:57.678Z,4.00
2023-04-21T03:01:00.926Z,4.00
2023-04-21T03:03:03.346Z,3.25
2023-04-21T03:05:05.226Z,3.00
2023-04-21T03:07:12.042Z,4.50
2023-04-21T03:09:13.591Z,4.00
2023-04-21T03:11:15.090Z,3.00
2023-04-21T03:13:16.631Z,2.75
2023-04-21T03:15:18.366Z,7.75
2023-04-21T03:17:21.301Z,3.50
2023-04-21T03:19:22.932Z,6.00
2023-04-21T03:21:24.538Z,4.00
2023-04-21T03:23:26.176Z,2.00
2023-04-21T03:25:28.062Z,4.00
2023-04-21T03:27:29.629Z,5.33
2023-04-21T03:29:31.324Z,3.00
2023-04-21T03:31:33.007Z,1.33
2023-04-21T03:33:35.935Z,3.00
2023-04-21T03:35:37.529Z,3.33
2023-04-21T03:37:39.263Z,1.25
2023-04-21T03:39:40.870Z,4.00
2023-04-21T03:41:42.677Z,4.50
2023-04-21T03:43:44.247Z,2.00
2023-04-21T03:45:45.937Z,4.00
2023-04-21T03:47:47.583Z,7.00
2023-04-21T03:49:50.626Z,6.00
2023-04-21T03:51:52.168Z,5.50
2023-04-21T03:53:53.724Z,2.00
2023-04-21T03:55:55.228Z,2.00
2023-04-21T03:57:56.775Z,3.00
2023-04-21T03:59:58.556Z,3.50
2023-04-21T04:02:00.284Z,3.00
2023-04-21T04:04:02.311Z,3.00
2023-04-21T04:06:05.960Z,3.25
2023-04-21T04:08:07.833Z,5.00
2023-04-21T04:10:09.583Z,3.00
2023-04-21T04:12:11.789Z,3.00
2023-04-21T04:14:13.658Z,3.00
2023-04-21T04:16:15.274Z,2.75
2023-04-21T04:18:17.215Z,6.00
2023-04-21T04:20:18.769Z,2.00
2023-04-21T04:22:21.770Z,6.75
2023-04-21T04:24:23.343Z,3.00
2023-04-21T04:26:25.141Z,4.00
2023-04-21T04:28:27.006Z,5.00
2023-04-21T04:30:29.199Z,3.50
2023-04-21T04:32:30.834Z,4.75
2023-04-21T04:34:32.461Z,2.50
2023-04-21T04:36:34.010Z,3.00
2023-04-21T04:38:37.204Z,1.25
2023-04-21T04:40:38.689Z,3.00
2023-04-21T04:42:40.263Z,3.00
2023-04-21T04:44:41.959Z,3.25
2023-04-21T04:46:43.545Z,3.00
2023-04-21T04:48:45.178Z,2.00
2023-04-21T04:50:47.463Z,1.00
2023-04-21T04:52:49.057Z,2.00
2023-04-21T04:54:52.251Z,2.50
2023-04-21T04:56:53.927Z,3.00
2023-04-21T04:58:55.556Z,3.00
2023-04-21T05:00:57.201Z,4.75
2023-04-21T05:02:59.390Z,4.00
2023-04-21T05:05:01.320Z,3.00
2023-04-21T05:07:03.201Z,3.00
2023-04-21T05:09:04.838Z,4.50
2023-04-21T05:11:08.138Z,3.00
2023-04-21T05:13:09.805Z,1.75
2023-04-21T05:15:11.646Z,3.00
2023-04-21T05:17:13.276Z,2.75
2023-04-21T05:19:16.286Z,4.00
2023-04-21T05:21:23.895Z,3.50
2023-04-21T05:23:25.549Z,4.25
2023-04-21T05:25:27.088Z,5.25
2023-04-21T05:27:30.045Z,3.75
2023-04-21T05:29:31.646Z,3.00
2023-04-21T05:31:33.382Z,3.25
2023-04-21T05:33:35.011Z,2.00
2023-04-21T05:35:38.969Z,3.00
2023-04-21T05:37:40.712Z,2.50
2023-04-21T05:39:42.609Z,2.00
2023-04-21T05:41:44.404Z,4.00
2023-04-21T05:43:47.776Z,2.75
2023-04-21T05:45:49.454Z,5.25
2023-04-21T05:47:50.986Z,4.00
2023-04-21T05:49:52.913Z,3.00
2023-04-21T05:51:54.671Z,3.25
2023-04-21T05:53:56.244Z,2.75
2023-04-21T05:55:58.230Z,3.00
2023-04-21T05:58:00.194Z,1.75
2023-04-21T06:00:03.774Z,3.00
2023-04-21T06:02:05.514Z,3.75
2023-04-21T06:04:08.259Z,2.00
2023-04-21T06:06:10.267Z,4.00
2023-04-21T06:08:12.067Z,2.00
2023-04-21T06:10:14.192Z,3.00
2023-04-21T06:12:15.742Z,3.25
2023-04-21T06:14:17.611Z,2.75
2023-04-21T06:16:20.699Z,3.00
2023-04-21T06:18:22.592Z,5.00
2023-04-21T06:20:24.495Z,2.00
2023-04-21T06:22:26.054Z,2.25
2023-04-21T06:24:32.207Z,2.75
2023-04-21T06:26:33.746Z,2.25
2023-04-21T06:28:36.807Z,3.00
2023-04-21T06:30:38.650Z,2.00
2023-04-21T06:32:41.629Z,3.50
2023-04-21T06:34:43.497Z,2.00
2023-04-21T06:36:45.389Z,1.00
2023-04-21T06:38:47.335Z,3.75
2023-04-21T06:40:49.032Z,1.75
2023-04-21T06:42:50.670Z,3.00
2023-04-21T06:44:52.354Z,3.00
2023-04-21T06:46:54.033Z,2.25
2023-04-21T06:48:57.231Z,3.00
2023-04-21T06:50:59.113Z,3.25
2023-04-21T06:53:00.690Z,4.25
2023-04-21T06:55:02.248Z,4.00
2023-04-21T06:57:03.962Z,2.25
2023-04-21T06:59:05.608Z,3.00
2023-04-21T07:01:07.320Z,3.75
2023-04-21T07:03:09.007Z,3.00
2023-04-21T07:05:12.062Z,4.00
2023-04-21T07:07:13.576Z,4.00
2023-04-21T07:09:15.163Z,3.25
2023-04-21T07:11:16.788Z,2.25
2023-04-21T07:13:18.464Z,3.00
2023-04-21T07:15:20.399Z,2.50
2023-04-21T07:17:21.942Z,3.00
2023-04-21T07:19:23.585Z,3.50
2023-04-21T07:21:26.538Z,3.00
2023-04-21T07:23:28.125Z,2.00
2023-04-21T07:25:29.822Z,6.75
2023-04-21T07:27:31.421Z,1.25
2023-04-21T07:29:33.080Z,3.00
2023-04-21T07:31:34.713Z,3.00
2023-04-21T07:33:36.800Z,2.25
2023-04-21T07:35:38.361Z,3.50
2023-04-21T07:37:41.336Z,4.00
2023-04-21T07:39:43.281Z,2.50
2023-04-21T07:41:45.128Z,3.50
2023-04-21T07:43:46.817Z,4.00
2023-04-21T07:45:48.398Z,3.75
2023-04-21T07:47:58.197Z,5.00
2023-04-21T07:49:59.879Z,4.00
2023-04-21T07:52:01.460Z,4.00
2023-04-21T07:54:04.476Z,4.25
2023-04-21T07:56:06.649Z,3.00
2023-04-21T07:58:08.293Z,2.25
2023-04-21T08:00:11.559Z,3.00
2023-04-21T08:02:13.419Z,3.50
2023-04-21T08:04:15.360Z,3.00
2023-04-21T08:06:17.411Z,4.00
2023-04-21T08:08:19.318Z,4.00
2023-04-21T08:10:22.314Z,3.00
2023-04-21T08:12:23.916Z,1.00
2023-04-21T08:14:25.456Z,3.25
2023-04-21T08:16:27.311Z,3.00
2023-04-21T08:18:29.080Z,3.75
2023-04-21T08:20:30.834Z,4.25
2023-04-21T08:22:32.589Z,4.00
2023-04-21T08:24:34.287Z,3.00
2023-04-21T08:26:37.153Z,3.00
2023-04-21T08:28:38.741Z,4.00
2023-04-21T08:30:40.324Z,2.20
2023-04-21T08:32:42.283Z,1.25
2023-04-21T08:34:43.902Z,3.50
2023-04-21T08:36:45.686Z,3.00
2023-04-21T08:38:47.502Z,3.00
2023-04-21T08:40:49.099Z,4.40
2023-04-21T08:42:52.103Z,2.60
2023-04-21T08:44:53.738Z,3.20
2023-04-21T08:46:56.649Z,2.20
2023-04-21T08:48:58.771Z,4.00
2023-04-21T08:51:01.956Z,2.00
2023-04-21T08:53:03.530Z,2.00
2023-04-21T08:55:06.592Z,4.40
2023-04-21T08:57:15.288Z,3.40
2023-04-21T08:59:19.341Z,3.60
2023-04-21T09:01:21.176Z,3.00
2023-04-21T09:03:26.358Z,5.60
2023-04-21T09:05:29.989Z,6.00
2023-04-21T09:07:34.111Z,2.00
2023-04-21T09:09:51.883Z,3.80
2023-04-21T09:11:54.948Z,7.20
2023-04-21T09:13:57.505Z,3.40
2023-04-21T09:16:02.219Z,3.00
2023-04-21T09:18:04.127Z,6.20
2023-04-21T09:20:13.934Z,3.20
2023-04-21T09:22:15.999Z,3.60
2023-04-21T09:24:17.763Z,1.80
2023-04-21T09:26:20.406Z,3.20
2023-04-21T09:28:22.032Z,5.60
2023-04-21T09:30:23.770Z,3.60
2023-04-21T09:32:26.733Z,3.00
2023-04-21T09:34:28.366Z,1.40
2023-04-21T09:36:31.224Z,3.00
2023-04-21T09:38:32.906Z,2.80
2023-04-21T09:40:34.534Z,3.80
2023-04-21T09:42:38.916Z,2.20
2023-04-21T09:44:52.478Z,4.00
2023-04-21T09:47:01.114Z,3.00
2023-04-21T09:49:04.913Z,3.00
2023-04-21T09:53:15.997Z,3.80
2023-04-21T09:55:27.970Z,3.60
2023-04-21T09:57:32.321Z,2.20
2023-04-21T09:59:40.676Z,2.00
2023-04-21T10:01:48.706Z,3.80
2023-04-21T10:03:52.082Z,3.00
2023-04-21T10:05:56.262Z,3.00
2023-04-21T10:08:00.512Z,1.80
2023-04-21T10:10:03.102Z,2.60
2023-04-21T10:12:07.009Z,4.80
2023-04-21T10:14:34.268Z,3.40
2023-04-21T10:16:39.694Z,2.20
2023-04-21T10:18:43.965Z,2.80
2023-04-21T10:31:32.029Z,3.00
2023-04-21T10:33:33.852Z,2.60
2023-04-21T10:35:59.595Z,2.20
2023-04-21T10:38:02.584Z,4.20
2023-04-21T10:40:07.676Z,4.00
2023-04-21T10:42:20.642Z,4.60
2023-04-21T10:44:22.549Z,4.60
2023-04-21T10:46:36.118Z,6.20
2023-04-21T10:48:37.801Z,4.20
2023-04-21T10:50:39.785Z,6.60
2023-04-21T10:52:44.886Z,4.20
2023-04-21T10:55:10.696Z,3.00
2023-04-21T10:57:14.089Z,3.60
2023-04-21T10:59:15.712Z,1.00
2023-04-21T11:01:17.690Z,4.00
2023-04-21T11:03:20.906Z,3.00
2023-04-21T11:05:28.558Z,3.00
2023-04-21T11:07:30.270Z,3.80
2023-04-21T11:09:32.386Z,4.40
2023-04-21T11:11:33.927Z,3.60
2023-04-21T11:13:35.561Z,4.00
2023-04-21T11:15:37.100Z,4.60
2023-04-21T11:17:39.182Z,3.40
2023-04-21T11:19:47.002Z,3.80
2023-04-21T11:21:49.222Z,3.80
2023-04-21T11:23:52.406Z,5.00
2023-04-21T11:25:57.023Z,4.00
2023-04-21T11:27:58.690Z,4.80
2023-04-21T11:30:04.125Z,6.00
2023-04-21T11:32:06.674Z,4.00
2023-04-21T11:34:12.536Z,5.00
2023-04-21T11:36:26.575Z,6.80
2023-04-21T11:38:28.226Z,4.00
2023-04-21T11:40:30.017Z,5.60
2023-04-21T11:42:32.152Z,7.40
2023-04-21T11:44:36.021Z,5.60
2023-04-21T11:46:38.056Z,5.50
2023-04-21T11:48:40.052Z,5.75
2023-04-21T11:50:47.153Z,6.80
2023-04-21T11:52:50.387Z,5.00
2023-04-21T11:54:56.384Z,5.00
2023-04-21T11:56:58.759Z,9.25
2023-04-21T11:59:06.916Z,6.00
2023-04-21T12:01:08.812Z,6.25
2023-04-21T12:03:14.014Z,6.50
2023-04-21T12:05:15.683Z,1.25
2023-04-21T12:07:23.177Z,4.25
2023-04-21T12:09:26.679Z,5.25
2023-04-21T12:11:28.612Z,6.75
2023-04-21T12:13:30.315Z,5.25
2023-04-21T12:15:31.930Z,6.25
2023-04-21T12:17:43.501Z,5.50
2023-04-21T12:19:45.084Z,6.50
2023-04-21T12:21:46.825Z,6.00
2023-04-21T12:23:48.483Z,6.00
2023-04-21T12:25:51.380Z,7.50
2023-04-21T12:27:57.651Z,5.75
2023-04-21T12:29:59.232Z,9.50
2023-04-21T12:32:01.458Z,8.25
2023-04-21T12:34:03.142Z,6.50
2023-04-21T12:36:04.944Z,6.00
2023-04-21T12:38:06.861Z,4.75
2023-04-21T12:40:09.467Z,4.50
2023-04-21T12:42:12.463Z,5.50
2023-04-21T12:44:16.783Z,5.00
2023-04-21T12:46:18.440Z,4.00
2023-04-21T12:48:20.071Z,9.00
2023-04-21T12:50:22.020Z,5.50
2023-04-21T12:52:23.691Z,7.25
2023-04-21T12:54:25.469Z,4.00
2023-04-21T12:56:27.388Z,3.50
2023-04-21T12:58:30.370Z,7.00
2023-04-21T13:00:32.082Z,4.50
2023-04-21T13:02:33.787Z,2.75
2023-04-21T13:04:35.551Z,5.50
2023-04-21T13:06:38.880Z,4.00
2023-04-21T13:08:40.401Z,4.00
2023-04-21T13:10:42.133Z,3.25
2023-04-21T13:12:43.780Z,4.25
2023-04-21T13:14:46.661Z,3.50
2023-04-21T13:16:48.335Z,5.25
2023-04-21T13:18:50.093Z,4.50
2023-04-21T13:20:51.667Z,5.00
2023-04-21T13:22:53.366Z,4.00
2023-04-21T13:24:54.897Z,3.75
2023-04-21T13:26:56.560Z,4.25
2023-04-21T13:28:58.332Z,4.25
2023-04-21T13:31:01.761Z,3.25
2023-04-21T13:33:04.221Z,3.00
2023-04-21T13:35:06.553Z,3.00
2023-04-21T13:37:08.234Z,3.00
2023-04-21T13:39:11.565Z,3.50
2023-04-21T13:41:13.141Z,3.75
2023-04-21T13:43:14.872Z,4.50
2023-04-21T13:45:16.842Z,5.00
2023-04-21T13:47:20.312Z,4.00
2023-04-21T13:49:22.169Z,3.50
2023-04-21T13:51:23.818Z,3.00
2023-04-21T13:53:25.405Z,2.75
2023-04-21T13:55:27.287Z,3.00
2023-04-21T13:57:28.897Z,5.00
2023-04-21T13:59:30.789Z,2.25
2023-04-21T14:01:32.625Z,3.00
2023-04-21T14:03:36.507Z,2.00
2023-04-21T14:05:39.145Z,3.00
2023-04-21T14:07:42.488Z,3.00
2023-04-21T14:09:44.189Z,4.00
2023-04-21T14:11:46.081Z,2.75
2023-04-21T14:14:00.809Z,2.50
2023-04-21T14:16:07.425Z,2.00
2023-04-21T14:18:09.187Z,2.50
2023-04-21T14:20:12.465Z,2.00
2023-04-21T14:22:14.129Z,3.00
2023-04-21T14:24:15.720Z,1.00
2023-04-21T14:26:17.374Z,1.00
2023-04-21T14:28:19.074Z,1.50
2023-04-21T14:30:20.927Z,3.50
2023-04-21T14:32:22.602Z,2.00
2023-04-21T14:34:26.006Z,2.00
2023-04-21T14:36:29.045Z,1.50
2023-04-21T14:38:30.872Z,2.00
2023-04-21T14:40:32.495Z,1.75
2023-04-21T14:42:34.130Z,1.00
2023-04-21T14:44:38.793Z,1.25
2023-04-21T14:46:40.650Z,2.00
2023-04-21T14:48:42.609Z,1.50
2023-04-21T14:50:44.291Z,2.00
2023-04-21T14:52:47.259Z,2.00
2023-04-21T14:54:51.313Z,1.25
2023-04-21T14:57:00.425Z,1.50
2023-04-21T14:59:05.186Z,2.00
2023-04-21T15:01:06.871Z,1.00
2023-04-21T15:03:08.781Z,1.25
2023-04-21T15:05:10.427Z,2.50
2023-04-21T15:07:12.222Z,1.75
2023-04-21T15:09:15.196Z,1.00
2023-04-21T15:11:16.896Z,1.00
2023-04-21T15:13:18.517Z,2.00
2023-04-21T15:15:20.102Z,1.50
2023-04-21T15:17:21.971Z,1.00
2023-04-21T15:19:25.586Z,1.00
2023-04-21T15:21:27.531Z,1.25
2023-04-21T15:23:29.166Z,0.00
2023-04-21T15:25:32.143Z,1.75
2023-04-21T15:27:33.849Z,1.25
2023-04-21T15:29:35.657Z,1.00
2023-04-21T15:31:37.642Z,0.50
2023-04-21T15:33:39.280Z,1.00
2023-04-21T15:35:40.913Z,1.00
2023-04-21T15:37:42.468Z,1.00
2023-04-21T15:39:44.050Z,1.00
2023-04-21T15:41:47.266Z,1.00
2023-04-21T15:43:48.838Z,1.00
2023-04-21T15:45:50.618Z,1.00
2023-04-21T15:47:52.406Z,1.50
2023-04-21T15:49:54.131Z,2.80
2023-04-21T15:51:56.297Z,1.20
2023-04-21T15:53:58.020Z,2.40
2023-04-21T15:55:59.611Z,1.60
2023-04-21T15:58:02.529Z,2.00
2023-04-21T16:00:05.670Z,3.00
2023-04-21T16:02:07.580Z,1.00
2023-04-21T16:04:09.419Z,1.60
2023-04-21T16:06:11.396Z,1.00
2023-04-21T16:08:13.120Z,1.40
2023-04-21T16:10:14.737Z,0.80
2023-04-21T16:12:17.088Z,1.00
2023-04-21T16:14:20.141Z,1.80
2023-04-21T16:16:22.242Z,1.00
2023-04-21T16:18:24.320Z,0.80
2023-04-21T16:20:26.183Z,1.60
2023-04-21T16:22:32.736Z,1.40
2023-04-21T16:24:34.595Z,0.80
2023-04-21T16:26:36.386Z,0.60
2023-04-21T16:28:38.083Z,1.20
2023-04-21T16:30:41.365Z,0.60
2023-04-21T16:32:42.957Z,0.60
2023-04-21T16:34:44.588Z,0.60
2023-04-21T16:36:46.298Z,1.20
2023-04-21T16:38:48.055Z,5.60
2023-04-21T16:40:49.769Z,0.60
2023-04-21T16:42:51.708Z,0.80
2023-04-21T16:44:53.303Z,0.60
2023-04-21T16:46:56.389Z,1.60
2023-04-21T16:48:58.867Z,2.00
2023-04-21T16:51:00.815Z,2.00
2023-04-21T16:53:02.610Z,2.00
2023-04-21T16:55:04.787Z,1.80
2023-04-21T16:57:06.440Z,1.60
2023-04-21T16:59:08.172Z,0.80
2023-04-21T17:01:09.728Z,3.00
2023-04-21T17:03:12.763Z,3.00
2023-04-21T17:05:14.421Z,5.40
2023-04-21T17:07:16.079Z,7.00
2023-04-21T17:09:17.605Z,4.00
2023-04-21T17:11:19.255Z,6.60
2023-04-21T17:13:20.814Z,2.80
2023-04-21T17:15:22.425Z,2.40
2023-04-21T17:17:24.386Z,2.40
2023-04-21T17:19:27.476Z,2.00
2023-04-21T17:21:29.046Z,3.00
2023-04-21T17:23:30.749Z,6.00
2023-04-21T17:25:32.444Z,4.00
2023-04-21T17:27:36.132Z,2.20
2023-04-21T17:29:37.782Z,2.00
2023-04-21T17:31:39.379Z,2.00
2023-04-21T17:33:41.536Z,2.60
2023-04-21T17:36:02.328Z,2.00
2023-04-21T17:38:04.836Z,2.80
2023-04-21T17:40:07.720Z,2.80
2023-04-21T17:42:09.483Z,1.20
2023-04-21T17:44:11.038Z,2.00
2023-04-21T17:46:12.611Z,1.80
2023-04-21T17:48:14.604Z,2.00
2023-04-21T17:50:16.304Z,1.60
2023-04-21T17:52:19.187Z,4.40
2023-04-21T17:54:20.843Z,5.00
2023-04-21T17:56:22.829Z,4.00
2023-04-21T17:58:26.113Z,3.20
2023-04-21T18:00:27.712Z,4.60
2023-04-21T18:02:29.417Z,3.80
2023-04-21T18:04:31.089Z,3.60
2023-04-21T18:06:32.694Z,5.50
2023-04-21T18:08:35.640Z,3.20
2023-04-21T18:10:37.396Z,4.75
2023-04-21T18:12:39.015Z,4.00
2023-04-21T18:14:40.767Z,3.00
2023-04-21T18:16:42.556Z,2.00
2023-04-21T18:18:44.245Z,1.25
2023-04-21T18:20:45.932Z,1.00
2023-04-21T18:22:48.148Z,1.00
2023-04-21T18:24:51.117Z,2.75
2023-04-21T18:26:52.668Z,2.25
2023-04-21T18:28:54.989Z,1.75
2023-04-21T18:30:56.749Z,2.00
2023-04-21T18:32:58.404Z,2.00
2023-04-21T18:35:00.787Z,1.00
2023-04-21T18:37:02.450Z,1.00
2023-04-21T18:39:04.074Z,2.00
2023-04-21T18:41:07.032Z,1.00
2023-04-21T18:43:09.272Z,3.50
2023-04-21T18:45:11.401Z,1.50
2023-04-21T18:47:13.350Z,2.50
2023-04-21T18:49:15.011Z,2.25
2023-04-21T18:51:16.907Z,3.75
2023-04-21T18:53:18.460Z,2.00
2023-04-21T18:55:20.495Z,2.00
2023-04-21T18:57:23.404Z,3.75
2023-04-21T18:59:24.937Z,2.25
2023-04-21T19:01:27.527Z,3.75
2023-04-21T19:03:29.527Z,3.00
2023-04-21T19:05:31.935Z,3.75
2023-04-21T19:07:35.050Z,4.50
2023-04-21T19:09:36.677Z,4.25
2023-04-21T19:11:38.510Z,3.00
2023-04-21T19:13:41.752Z,3.00
2023-04-21T19:15:43.555Z,4.25
2023-04-21T19:17:45.178Z,2.00
2023-04-21T19:19:46.864Z,3.00
2023-04-21T19:21:48.600Z,2.00
2023-04-21T19:23:50.798Z,2.00
2023-04-21T19:25:52.572Z,4.00
2023-04-21T19:27:54.262Z,3.50
2023-04-21T19:29:57.449Z,4.25
2023-04-21T19:31:59.168Z,5.75
2023-04-21T19:34:00.895Z,5.00
2023-04-21T19:36:03.067Z,4.00
2023-04-21T19:38:04.677Z,3.75
2023-04-21T19:40:07.665Z,3.00
2023-04-21T19:42:09.335Z,4.00
2023-04-21T19:44:10.970Z,2.75
2023-04-21T19:46:14.097Z,2.00
2023-04-21T19:48:16.096Z,2.75
2023-04-21T19:50:17.922Z,5.00
2023-04-21T19:52:19.941Z,4.75
2023-04-21T19:54:21.527Z,3.00
2023-04-21T19:56:23.091Z,5.50
2023-04-21T19:58:38.868Z,8.00
2023-04-21T20:00:41.720Z,9.25
2023-04-21T20:02:44.726Z,8.00
2023-04-21T20:04:46.659Z,6.00
2023-04-21T20:06:48.518Z,8.75
2023-04-21T20:08:50.441Z,8.50
2023-04-21T20:10:54.245Z,11.75
2023-04-21T20:12:55.903Z,3.75
2023-04-21T20:15:00.772Z,11.75
2023-04-21T20:17:02.821Z,10.00
2023-04-21T20:19:05.699Z,9.50
2023-04-21T20:21:07.278Z,7.25
2023-04-21T20:23:08.776Z,2.25
2023-04-21T20:25:10.510Z,3.50
2023-04-21T20:27:12.064Z,3.00
2023-04-21T20:29:13.932Z,2.00
2023-04-21T20:31:15.481Z,1.50
2023-04-21T20:33:17.124Z,2.00
2023-04-21T20:35:20.005Z,1.25
2023-04-21T20:37:22.067Z,1.00
2023-04-21T20:39:23.809Z,2.75
2023-04-21T20:41:25.418Z,2.00
2023-04-21T20:43:27.043Z,2.00
2023-04-21T20:45:28.673Z,3.00
2023-04-21T20:47:30.627Z,2.25
2023-04-21T20:49:32.647Z,2.00
2023-04-21T20:51:40.741Z,2.75
2023-04-21T20:53:42.283Z,3.50
2023-04-21T20:55:43.887Z,2.00
2023-04-21T20:57:45.424Z,0.00
2023-04-21T20:59:46.990Z,2.75
2023-04-21T21:01:48.611Z,2.75
2023-04-21T21:03:50.345Z,2.75
2023-04-21T21:05:52.443Z,1.00
2023-04-21T21:07:56.258Z,1.75
2023-04-21T21:09:57.944Z,1.50
2023-04-21T21:11:59.645Z,2.75
2023-04-21T21:14:01.435Z,5.25
2023-04-21T21:16:03.117Z,4.25
2023-04-21T21:18:04.847Z,2.75
2023-04-21T21:20:07.782Z,1.00
2023-04-21T21:22:09.573Z,0.00
2023-04-21T21:24:12.437Z,0.25
2023-04-21T21:26:14.076Z,1.00
2023-04-21T21:28:15.628Z,1.00
2023-04-21T21:30:17.288Z,1.00
2023-04-21T21:32:18.958Z,1.00
2023-04-21T21:34:20.823Z,1.00
2023-04-21T21:36:22.432Z,2.00
2023-04-21T21:38:24.017Z,1.25
2023-04-21T21:40:27.413Z,3.00
2023-04-21T21:42:29.128Z,1.00
2023-04-21T21:44:30.676Z,1.25
2023-04-21T21:46:32.446Z,1.00
2023-04-21T21:48:34.187Z,1.50
2023-04-21T21:50:35.768Z,1.00
2023-04-21T21:52:37.341Z,1.75
2023-04-21T21:54:38.866Z,1.00
2023-04-21T21:56:41.907Z,0.00
2023-04-21T21:58:43.576Z,1.00
2023-04-21T22:00:45.139Z,3.00
2023-04-21T22:02:46.850Z,1.00
2023-04-21T22:04:51.057Z,1.25
2023-04-21T22:06:52.738Z,0.50
2023-04-21T22:08:54.252Z,1.00
2023-04-21T22:10:55.835Z,2.00
2023-04-21T22:12:58.712Z,1.00
2023-04-21T22:15:00.264Z,16.50
2023-04-21T22:17:02.227Z,7.50
2023-04-21T22:19:03.766Z,4.25
2023-04-21T22:21:05.767Z,3.00
2023-04-21T22:23:07.482Z,1.00
2023-04-21T22:25:09.760Z,3.50
2023-04-21T22:27:11.298Z,2.25
2023-04-21T22:29:14.162Z,2.00
2023-04-21T22:31:15.837Z,3.00
2023-04-21T22:33:17.395Z,3.75
2023-04-21T22:35:19.154Z,1.00
2023-04-21T22:37:20.780Z,3.00
2023-04-21T22:39:22.370Z,2.75
2023-04-21T22:41:23.955Z,2.25
2023-04-21T22:43:25.531Z,4.00
2023-04-21T22:45:28.544Z,0.00
2023-04-21T22:47:32.140Z,2.25
2023-04-21T22:49:33.683Z,2.00
2023-04-21T22:51:35.236Z,2.00
2023-04-21T22:53:36.922Z,3.50
2023-04-21T22:55:38.734Z,2.75
2023-04-21T22:57:40.389Z,4.00
2023-04-21T22:59:41.907Z,3.00
2023-04-21T23:01:44.924Z,2.00
2023-04-21T23:03:46.625Z,1.00
2023-04-21T23:05:48.243Z,3.25
2023-04-21T23:07:49.841Z,2.00
2023-04-21T23:09:51.492Z,2.25
2023-04-21T23:11:53.369Z,4.50
2023-04-21T23:13:54.904Z,1.75
2023-04-21T23:15:56.409Z,3.00
2023-04-21T23:17:59.382Z,2.00
2023-04-21T23:20:00.990Z,1.50
2023-04-21T23:22:02.692Z,2.00
2023-04-21T23:24:04.532Z,2.25
2023-04-21T23:26:06.093Z,2.50
2023-04-21T23:28:07.621Z,1.75
2023-04-21T23:30:10.376Z,1.00
2023-04-21T23:32:12.122Z,2.00
2023-04-21T23:34:15.353Z,2.00
2023-04-21T23:36:16.999Z,4.00
2023-04-21T23:38:18.514Z,4.25
2023-04-21T23:40:20.219Z,2.25
2023-04-21T23:42:21.806Z,2.00
2023-04-21T23:44:23.419Z,2.00
2023-04-21T23:46:25.072Z,4.00
2023-04-21T23:48:26.667Z,2.00
2023-04-21T23:50:29.692Z,0.00
2023-04-21T23:52:31.444Z,1.25
2023-04-21T23:54:33.049Z,2.25
2023-04-21T23:56:34.660Z,2.00
2023-04-21T23:58:36.365Z,3.00
